createdAt,value
2022-08-24T00:00:54.971Z,18.20
2022-08-24T00:03:21.908Z,18.20
2022-08-24T00:05:48.927Z,18.20
2022-08-24T00:08:15.687Z,18.20
2022-08-24T00:10:42.419Z,18.20
2022-08-24T00:13:09.253Z,18.20
2022-08-24T00:15:36.011Z,18.20
2022-08-24T00:18:02.834Z,18.20
2022-08-24T00:20:30.561Z,18.10
2022-08-24T00:22:57.361Z,18.10
2022-08-24T00:25:24.410Z,18.10
2022-08-24T00:27:51.267Z,18.10
2022-08-24T00:30:18.692Z,18.10
2022-08-24T00:32:48.032Z,18.00
2022-08-24T00:35:15.883Z,18.10
2022-08-24T00:37:42.763Z,18.00
2022-08-24T00:40:12.468Z,18.00
2022-08-24T00:42:39.676Z,18.00
2022-08-24T00:45:07.504Z,18.00
2022-08-24T00:47:42.599Z,17.90
2022-08-24T00:50:19.254Z,17.90
2022-08-24T00:52:48.841Z,17.80
2022-08-24T00:55:20.199Z,17.80
2022-08-24T00:57:48.528Z,17.70
2022-08-24T01:00:20.255Z,17.70
2022-08-24T01:02:48.958Z,17.70
2022-08-24T01:05:16.446Z,17.60
2022-08-24T01:07:43.564Z,17.50
2022-08-24T01:10:11.633Z,17.40
2022-08-24T01:12:39.463Z,17.40
2022-08-24T01:15:07.771Z,17.40
2022-08-24T01:17:53.331Z,17.30
2022-08-24T01:20:20.857Z,17.20
2022-08-24T01:23:06.382Z,17.20
2022-08-24T01:25:34.701Z,17.10
2022-08-24T01:28:05.567Z,17.00
2022-08-24T01:30:36.625Z,17.00
2022-08-24T01:33:06.014Z,16.90
2022-08-24T01:35:33.641Z,16.90
2022-08-24T01:38:02.131Z,16.90
2022-08-24T01:40:32.871Z,16.80
2022-08-24T01:42:59.578Z,16.80
2022-08-24T01:45:26.613Z,16.80
2022-08-24T01:47:53.339Z,16.70
2022-08-24T01:50:20.058Z,16.60
2022-08-24T01:53:14.473Z,16.60
2022-08-24T01:55:34.529Z,16.50
2022-08-24T01:58:01.339Z,16.50
2022-08-24T02:00:28.545Z,16.50
2022-08-24T02:02:57.089Z,16.40
2022-08-24T02:05:24.377Z,16.40
2022-08-24T02:07:51.635Z,16.40
2022-08-24T02:10:18.911Z,16.30
2022-08-24T02:12:57.595Z,16.30
2022-08-24T02:15:27.364Z,16.20
2022-08-24T02:17:54.961Z,16.20
2022-08-24T02:20:22.232Z,16.10
2022-08-24T02:22:50.100Z,16.10
2022-08-24T02:25:17.614Z,16.10
2022-08-24T02:27:44.333Z,16.10
2022-08-24T02:30:11.183Z,16.10
2022-08-24T02:32:38.667Z,16.10
2022-08-24T02:35:05.777Z,16.10
2022-08-24T02:37:32.609Z,16.00
2022-08-24T02:39:59.847Z,16.00
2022-08-24T02:42:26.585Z,16.00
2022-08-24T02:44:53.780Z,15.90
2022-08-24T02:47:21.895Z,15.90
2022-08-24T02:50:06.793Z,15.90
2022-08-24T02:52:33.685Z,15.80
2022-08-24T02:55:00.523Z,15.80
2022-08-24T02:57:27.482Z,15.70
2022-08-24T02:59:54.581Z,15.70
2022-08-24T03:02:21.340Z,15.70
2022-08-24T03:04:49.498Z,15.60
2022-08-24T03:07:16.423Z,15.50
2022-08-24T03:09:43.110Z,15.60
2022-08-24T03:12:09.828Z,15.50
2022-08-24T03:14:36.589Z,15.50
2022-08-24T03:17:03.622Z,15.50
2022-08-24T03:19:30.421Z,15.50
2022-08-24T03:21:57.356Z,15.50
2022-08-24T03:24:24.104Z,15.50
2022-08-24T03:26:50.977Z,15.50
2022-08-24T03:29:17.966Z,15.50
2022-08-24T03:31:45.245Z,15.50
2022-08-24T03:34:13.564Z,15.40
2022-08-24T03:36:40.871Z,15.40
2022-08-24T03:39:07.773Z,15.30
2022-08-24T03:41:36.587Z,15.30
2022-08-24T03:44:03.885Z,15.30
2022-08-24T03:46:35.424Z,15.20
2022-08-24T03:49:04.224Z,15.30
2022-08-24T03:51:31.154Z,15.20
2022-08-24T03:53:59.083Z,15.20
2022-08-24T03:56:26.332Z,15.20
2022-08-24T03:58:53.532Z,15.20
2022-08-24T04:01:20.425Z,15.10
2022-08-24T04:03:48.001Z,15.10
2022-08-24T04:06:16.150Z,15.00
2022-08-24T04:08:43.151Z,15.00
2022-08-24T04:11:11.359Z,14.90
2022-08-24T04:13:38.082Z,14.90
2022-08-24T04:16:08.967Z,14.90
2022-08-24T04:18:35.948Z,14.90
2022-08-24T04:21:02.884Z,14.90
2022-08-24T04:23:46.530Z,14.90
2022-08-24T04:26:14.605Z,15.00
2022-08-24T04:28:41.333Z,15.00
2022-08-24T04:31:08.499Z,15.00
2022-08-24T04:33:35.378Z,15.00
2022-08-24T04:36:02.878Z,15.00
2022-08-24T04:38:30.179Z,15.00
2022-08-24T04:40:56.898Z,15.00
2022-08-24T04:43:27.175Z,15.00
2022-08-24T04:45:54.026Z,15.00
2022-08-24T04:48:20.788Z,15.00
2022-08-24T04:50:47.719Z,15.10
2022-08-24T04:53:15.089Z,15.00
2022-08-24T04:55:46.698Z,14.90
2022-08-24T04:58:14.922Z,15.00
2022-08-24T05:00:42.252Z,15.00
2022-08-24T05:03:09.005Z,15.10
2022-08-24T05:05:39.583Z,15.20
2022-08-24T05:08:06.272Z,15.20
2022-08-24T05:10:33.630Z,15.30
2022-08-24T05:13:00.563Z,15.30
2022-08-24T05:15:27.386Z,15.30
2022-08-24T05:17:54.100Z,15.30
2022-08-24T05:20:21.391Z,15.30
2022-08-24T05:22:50.100Z,15.30
2022-08-24T05:25:18.854Z,15.30
2022-08-24T05:27:45.750Z,15.30
2022-08-24T05:30:12.673Z,15.40
2022-08-24T05:32:39.501Z,15.40
2022-08-24T05:35:06.809Z,15.50
2022-08-24T05:37:37.170Z,15.60
2022-08-24T05:40:04.895Z,15.70
2022-08-24T05:42:31.708Z,15.80
2022-08-24T05:44:58.574Z,15.90
2022-08-24T05:47:25.489Z,15.90
2022-08-24T05:49:53.700Z,16.00
2022-08-24T05:52:22.134Z,16.00
2022-08-24T05:54:53.062Z,16.10
2022-08-24T05:57:19.989Z,16.20
2022-08-24T05:59:46.870Z,16.20
2022-08-24T06:02:13.698Z,16.30
2022-08-24T06:04:41.050Z,16.30
2022-08-24T06:07:11.468Z,16.20
2022-08-24T06:09:39.550Z,16.30
2022-08-24T06:12:07.280Z,16.30
2022-08-24T06:14:34.620Z,16.30
2022-08-24T06:17:03.754Z,16.30
2022-08-24T06:19:30.600Z,16.30
2022-08-24T06:21:57.268Z,16.40
2022-08-24T06:24:42.646Z,16.40
2022-08-24T06:27:21.284Z,16.40
2022-08-24T06:29:57.093Z,16.50
2022-08-24T06:32:23.852Z,16.50
2022-08-24T06:34:50.595Z,16.50
2022-08-24T06:37:17.573Z,16.60
2022-08-24T06:39:45.472Z,16.60
2022-08-24T06:42:12.374Z,16.70
2022-08-24T06:44:39.148Z,16.70
2022-08-24T06:47:06.002Z,16.70
2022-08-24T06:49:32.767Z,16.70
2022-08-24T06:51:59.448Z,16.80
2022-08-24T06:54:26.246Z,16.80
2022-08-24T06:56:53.004Z,16.90
2022-08-24T06:59:20.821Z,17.00
2022-08-24T07:01:47.573Z,17.10
2022-08-24T07:04:14.344Z,17.30
2022-08-24T07:06:41.100Z,17.30
2022-08-24T07:09:07.772Z,17.40
2022-08-24T07:11:35.183Z,17.60
2022-08-24T07:14:02.100Z,17.60
2022-08-24T07:16:28.832Z,17.70
2022-08-24T07:18:55.576Z,17.80
2022-08-24T07:21:22.266Z,17.90
2022-08-24T07:23:49.517Z,18.00
2022-08-24T07:26:22.642Z,18.10
2022-08-24T07:29:05.130Z,18.10
2022-08-24T07:31:35.369Z,18.20
2022-08-24T07:34:03.670Z,18.30
2022-08-24T07:36:30.467Z,18.30
2022-08-24T07:38:57.406Z,18.40
2022-08-24T07:44:15.731Z,18.50
2022-08-24T07:46:42.715Z,18.60
2022-08-24T07:49:21.381Z,18.60
2022-08-24T07:51:55.261Z,18.70
2022-08-24T07:54:22.036Z,18.80
2022-08-24T07:56:50.215Z,18.80
2022-08-24T07:59:17.222Z,18.90
2022-08-24T08:01:44.038Z,19.00
2022-08-24T08:04:10.840Z,19.10
2022-08-24T08:06:37.535Z,19.20
2022-08-24T08:09:05.295Z,19.20
2022-08-24T08:11:32.137Z,19.30
2022-08-24T08:13:58.871Z,19.30
2022-08-24T08:16:26.414Z,19.30
2022-08-24T08:19:09.291Z,19.40
2022-08-24T08:22:06.704Z,19.50
2022-08-24T08:24:33.972Z,19.50
2022-08-24T08:27:01.300Z,19.60
2022-08-24T08:29:28.383Z,19.60
2022-08-24T08:31:55.910Z,19.70
2022-08-24T08:34:22.849Z,19.80
2022-08-24T08:36:49.644Z,19.80
2022-08-24T08:39:17.356Z,19.80
2022-08-24T08:41:53.490Z,20.00
2022-08-24T08:44:32.822Z,20.10
2022-08-24T08:46:59.508Z,20.10
2022-08-24T08:49:45.119Z,20.20
2022-08-24T08:52:18.064Z,20.30
2022-08-24T08:54:51.227Z,20.40
2022-08-24T08:57:24.274Z,20.50
2022-08-24T09:00:04.805Z,20.50
2022-08-24T09:02:35.616Z,20.60
2022-08-24T09:05:15.864Z,20.60
2022-08-24T09:07:51.097Z,20.70
2022-08-24T09:10:22.989Z,20.70
2022-08-24T09:12:52.844Z,20.80
2022-08-24T09:15:34.295Z,20.90
2022-08-24T09:18:20.310Z,21.00
2022-08-24T09:20:53.141Z,21.10
2022-08-24T09:23:35.098Z,21.10
2022-08-24T09:26:11.010Z,21.20
2022-08-24T09:28:37.752Z,21.30
2022-08-24T09:31:18.728Z,21.30
2022-08-24T09:33:51.070Z,21.30
2022-08-24T09:36:20.357Z,21.30
2022-08-24T09:39:06.041Z,21.40
2022-08-24T09:41:50.000Z,21.40
2022-08-24T09:44:41.371Z,21.60
2022-08-24T09:47:26.787Z,21.70
2022-08-24T09:49:53.476Z,21.70
2022-08-24T09:52:39.031Z,21.90
2022-08-24T09:55:24.487Z,22.00
2022-08-24T09:58:17.652Z,22.10
2022-08-24T10:00:49.919Z,22.10
2022-08-24T10:03:16.856Z,22.20
2022-08-24T10:06:06.785Z,22.30
2022-08-24T10:08:39.705Z,22.40
2022-08-24T10:11:25.549Z,22.50
2022-08-24T10:13:59.063Z,22.50
2022-08-24T10:16:52.048Z,22.50
2022-08-24T10:19:19.172Z,22.60
2022-08-24T10:21:52.098Z,22.70
2022-08-24T10:24:21.838Z,22.70
2022-08-24T10:26:51.522Z,22.70
2022-08-24T10:29:29.382Z,22.80
2022-08-24T10:32:20.344Z,22.90
2022-08-24T10:34:54.334Z,23.00
2022-08-24T10:37:21.081Z,23.00
2022-08-24T10:39:51.823Z,23.10
2022-08-24T10:43:00.440Z,23.10
2022-08-24T10:45:27.212Z,23.20
2022-08-24T10:48:14.205Z,23.30
2022-08-24T10:50:49.553Z,23.40
2022-08-24T10:53:29.428Z,23.50
2022-08-24T10:55:59.203Z,23.60
2022-08-24T10:58:49.489Z,23.60
2022-08-24T11:01:19.099Z,23.60
2022-08-24T11:03:49.120Z,23.70
2022-08-24T11:06:16.836Z,23.70
2022-08-24T11:08:51.701Z,23.80
2022-08-24T11:11:29.784Z,23.90
2022-08-24T11:14:00.232Z,24.00
2022-08-24T11:16:37.560Z,24.10
2022-08-24T11:19:07.260Z,24.00
2022-08-24T11:21:37.219Z,23.80
2022-08-24T11:24:05.940Z,23.90
2022-08-24T11:26:35.672Z,24.00
2022-08-24T11:29:04.557Z,24.20
2022-08-24T11:31:36.278Z,24.40
2022-08-24T11:34:04.993Z,24.60
2022-08-24T11:36:33.398Z,24.70
2022-08-24T11:39:18.660Z,24.70
2022-08-24T11:41:50.184Z,24.60
2022-08-24T11:44:16.851Z,24.40
2022-08-24T11:46:46.875Z,24.20
2022-08-24T11:49:25.400Z,24.00
2022-08-24T11:51:58.289Z,23.80
2022-08-24T11:54:31.367Z,23.80
2022-08-24T11:57:10.394Z,23.90
2022-08-24T11:59:37.063Z,24.10
2022-08-24T12:02:22.518Z,24.40
2022-08-24T12:04:49.302Z,24.60
2022-08-24T12:07:28.395Z,24.70
2022-08-24T12:10:01.105Z,24.80
2022-08-24T12:12:35.726Z,24.90
2022-08-24T12:15:05.539Z,24.90
2022-08-24T12:17:45.940Z,25.10
2022-08-24T12:20:27.328Z,25.20
2022-08-24T12:22:56.869Z,25.20
2022-08-24T12:25:42.614Z,25.30
2022-08-24T12:28:10.285Z,25.30
2022-08-24T12:30:37.083Z,25.30
2022-08-24T12:33:07.216Z,25.40
2022-08-24T12:35:41.531Z,25.40
2022-08-24T12:38:21.644Z,25.40
2022-08-24T12:41:00.196Z,25.50
2022-08-24T12:43:55.540Z,25.50
2022-08-24T12:46:26.104Z,25.50
2022-08-24T12:48:58.869Z,25.60
2022-08-24T12:51:44.879Z,25.50
2022-08-24T12:54:11.589Z,25.30
2022-08-24T12:56:56.993Z,25.20
2022-08-24T12:59:28.602Z,25.10
2022-08-24T13:02:04.664Z,24.90
2022-08-24T13:04:54.778Z,24.90
2022-08-24T13:07:21.460Z,25.10
2022-08-24T13:09:48.093Z,25.30
2022-08-24T13:12:33.230Z,25.60
2022-08-24T13:15:19.094Z,25.60
2022-08-24T13:17:45.865Z,25.70
2022-08-24T13:20:27.771Z,25.70
2022-08-24T13:23:18.951Z,25.80
2022-08-24T13:25:51.672Z,25.90
2022-08-24T13:28:24.373Z,26.00
2022-08-24T13:31:09.945Z,26.00
2022-08-24T13:33:36.720Z,26.00
2022-08-24T13:36:22.913Z,26.00
2022-08-24T13:39:00.816Z,25.90
2022-08-24T13:41:37.594Z,25.90
2022-08-24T13:44:07.767Z,25.90
2022-08-24T13:46:53.135Z,25.90
2022-08-24T13:49:33.983Z,25.80
2022-08-24T13:52:12.996Z,25.90
2022-08-24T13:54:51.686Z,25.90
2022-08-24T13:57:32.133Z,25.90
2022-08-24T14:00:13.620Z,26.00
2022-08-24T14:02:43.783Z,26.10
2022-08-24T14:05:24.275Z,26.00
2022-08-24T14:08:06.082Z,26.10
2022-08-24T14:10:37.691Z,26.00
2022-08-24T14:13:04.397Z,26.00
2022-08-24T14:15:34.378Z,26.10
2022-08-24T14:18:07.411Z,26.00
2022-08-24T14:20:54.675Z,26.00
2022-08-24T14:23:46.715Z,26.00
2022-08-24T14:26:32.253Z,25.90
2022-08-24T14:29:17.775Z,25.90
2022-08-24T14:31:58.635Z,25.90
2022-08-24T14:34:48.620Z,25.90
2022-08-24T14:37:16.510Z,25.90
2022-08-24T14:40:03.233Z,25.90
2022-08-24T14:42:48.602Z,25.90
2022-08-24T14:45:15.408Z,25.90
2022-08-24T14:47:51.013Z,25.90
2022-08-24T14:50:23.980Z,25.90
2022-08-24T14:52:50.738Z,26.00
2022-08-24T14:55:20.627Z,26.00
2022-08-24T14:57:59.770Z,26.10
2022-08-24T15:00:45.521Z,26.00
2022-08-24T15:03:12.176Z,26.00
2022-08-24T15:05:41.674Z,26.00
2022-08-24T15:08:16.195Z,26.00
2022-08-24T15:10:56.279Z,25.90
2022-08-24T15:13:34.333Z,26.00
2022-08-24T15:16:08.525Z,25.90
2022-08-24T15:18:38.251Z,25.90
2022-08-24T15:21:17.929Z,25.90
2022-08-24T15:23:53.628Z,25.90
2022-08-24T15:26:39.143Z,26.00
2022-08-24T15:29:13.615Z,26.00
2022-08-24T15:31:40.557Z,25.90
2022-08-24T15:34:07.256Z,25.90
2022-08-24T15:36:34.456Z,25.80
2022-08-24T15:39:01.868Z,25.80
2022-08-24T15:41:36.849Z,25.70
2022-08-24T15:44:08.853Z,25.60
2022-08-24T15:46:43.004Z,25.60
2022-08-24T15:49:24.048Z,25.60
2022-08-24T15:51:56.042Z,25.60
2022-08-24T15:54:24.758Z,25.60
2022-08-24T15:56:54.885Z,25.60
2022-08-24T15:59:28.104Z,25.60
2022-08-24T16:02:26.429Z,25.50
2022-08-24T16:05:10.416Z,25.50
2022-08-24T16:07:59.440Z,25.40
2022-08-24T16:10:29.297Z,25.40
2022-08-24T16:13:09.782Z,25.40
2022-08-24T16:15:44.374Z,25.40
2022-08-24T16:18:11.174Z,25.40
2022-08-24T16:20:38.081Z,25.40
2022-08-24T16:23:07.631Z,25.40
2022-08-24T16:25:48.018Z,25.40
2022-08-24T16:28:23.719Z,25.50
2022-08-24T16:30:51.590Z,26.00
2022-08-24T16:33:43.039Z,26.50
2022-08-24T16:36:12.116Z,26.60
2022-08-24T16:38:42.584Z,26.30
2022-08-24T16:41:12.044Z,26.20
2022-08-24T16:43:40.223Z,26.50
2022-08-24T16:46:08.418Z,26.40
2022-08-24T16:48:35.169Z,26.10
2022-08-24T16:51:02.694Z,25.70
2022-08-24T16:53:29.397Z,25.60
2022-08-24T16:55:56.320Z,25.30
2022-08-24T16:58:25.446Z,25.10
2022-08-24T17:00:53.130Z,25.30
2022-08-24T17:03:19.914Z,25.50
2022-08-24T17:05:46.638Z,25.40
2022-08-24T17:08:13.530Z,25.30
2022-08-24T17:10:40.573Z,25.20
2022-08-24T17:13:07.406Z,24.90
2022-08-24T17:15:35.414Z,24.70
2022-08-24T17:18:05.316Z,24.50
2022-08-24T17:20:32.418Z,24.40
2022-08-24T17:22:59.226Z,24.30
2022-08-24T17:25:26.570Z,24.30
2022-08-24T17:27:54.651Z,24.20
2022-08-24T17:30:23.715Z,24.10
2022-08-24T17:32:52.435Z,24.10
2022-08-24T17:35:20.769Z,24.00
2022-08-24T17:37:48.330Z,23.80
2022-08-24T17:40:16.723Z,23.70
2022-08-24T17:42:51.756Z,23.70
2022-08-24T17:45:19.074Z,23.50
2022-08-24T17:47:46.336Z,23.40
2022-08-24T17:50:13.853Z,23.30
2022-08-24T17:52:41.003Z,23.20
2022-08-24T17:55:09.540Z,23.10
2022-08-24T17:57:36.600Z,23.00
2022-08-24T18:00:05.046Z,22.80
2022-08-24T18:02:33.864Z,22.70
2022-08-24T18:05:00.646Z,22.60
2022-08-24T18:07:49.652Z,22.50
2022-08-24T18:10:19.003Z,22.40
2022-08-24T18:12:45.682Z,22.30
2022-08-24T18:15:12.495Z,22.30
2022-08-24T18:17:42.275Z,22.20
2022-08-24T18:20:10.753Z,22.10
2022-08-24T18:22:44.335Z,22.00
2022-08-24T18:25:12.945Z,21.90
2022-08-24T18:27:40.229Z,21.80
2022-08-24T18:30:08.480Z,21.70
2022-08-24T18:32:39.562Z,21.60
2022-08-24T18:35:07.865Z,21.60
2022-08-24T18:37:34.567Z,21.50
2022-08-24T18:40:01.295Z,21.50
2022-08-24T18:42:28.419Z,21.40
2022-08-24T18:44:55.153Z,21.40
2022-08-24T18:47:22.075Z,21.30
2022-08-24T18:49:48.751Z,21.30
2022-08-24T18:52:17.105Z,21.20
2022-08-24T18:54:47.500Z,21.10
2022-08-24T18:57:14.585Z,21.10
2022-08-24T18:59:41.761Z,21.10
2022-08-24T19:02:28.837Z,21.10
2022-08-24T19:04:56.975Z,21.00
2022-08-24T19:07:25.282Z,21.00
2022-08-24T19:09:52.615Z,21.00
2022-08-24T19:12:19.728Z,20.90
2022-08-24T19:14:47.611Z,20.90
2022-08-24T19:17:15.037Z,20.80
2022-08-24T19:19:41.737Z,20.80
2022-08-24T19:22:10.571Z,20.80
2022-08-24T19:24:38.643Z,20.70
2022-08-24T19:27:06.867Z,20.70
2022-08-24T19:29:54.435Z,20.60
2022-08-24T19:32:22.395Z,20.60
2022-08-24T19:34:50.029Z,20.50
2022-08-24T19:37:16.903Z,20.50
2022-08-24T19:39:43.895Z,20.40
2022-08-24T19:42:12.997Z,20.40
2022-08-24T19:44:58.361Z,20.40
2022-08-24T19:47:25.857Z,20.30
2022-08-24T19:49:52.637Z,20.30
2022-08-24T19:52:19.805Z,20.20
2022-08-24T19:54:47.363Z,20.10
2022-08-24T19:57:35.053Z,20.00
2022-08-24T20:00:20.697Z,20.00
2022-08-24T20:02:52.221Z,19.90
2022-08-24T20:05:20.112Z,19.90
2022-08-24T20:07:47.268Z,19.80
2022-08-24T20:10:14.967Z,19.80
2022-08-24T20:12:42.011Z,19.80
2022-08-24T20:15:09.172Z,19.80
2022-08-24T20:17:36.366Z,19.70
2022-08-24T20:20:04.343Z,19.60
2022-08-24T20:22:31.013Z,19.60
2022-08-24T20:24:57.805Z,19.60
2022-08-24T20:27:26.485Z,19.50
2022-08-24T20:29:53.958Z,19.50
2022-08-24T20:32:20.850Z,19.50
2022-08-24T20:34:47.534Z,19.50
2022-08-24T20:37:17.682Z,19.50
2022-08-24T20:39:44.439Z,19.50
2022-08-24T20:42:16.431Z,19.50
2022-08-24T20:44:45.338Z,19.50
2022-08-24T20:47:12.307Z,19.50
2022-08-24T20:49:39.733Z,19.50
2022-08-24T20:52:07.798Z,19.40
2022-08-24T20:54:39.347Z,19.40
2022-08-24T20:57:08.254Z,19.20
2022-08-24T20:59:35.392Z,19.20
2022-08-24T21:02:02.716Z,19.10
2022-08-24T21:04:30.006Z,19.10
2022-08-24T21:06:57.204Z,19.10
2022-08-24T21:09:24.023Z,19.10
2022-08-24T21:11:51.036Z,19.10
2022-08-24T21:14:17.898Z,19.00
2022-08-24T21:16:45.137Z,19.00
2022-08-24T21:19:16.155Z,19.00
2022-08-24T21:21:43.209Z,19.00
2022-08-24T21:24:10.057Z,18.90
2022-08-24T21:26:37.047Z,18.90
2022-08-24T21:29:05.659Z,18.90
2022-08-24T21:31:32.707Z,18.90
2022-08-24T21:34:18.102Z,18.80
2022-08-24T21:36:44.832Z,18.80
2022-08-24T21:39:13.671Z,18.70
2022-08-24T21:41:40.569Z,18.70
2022-08-24T21:44:07.279Z,18.70
2022-08-24T21:46:35.385Z,18.70
2022-08-24T21:49:02.647Z,18.70
2022-08-24T21:51:29.589Z,18.60
2022-08-24T21:53:59.536Z,18.50
2022-08-24T21:56:28.154Z,18.50
2022-08-24T21:58:54.975Z,18.50
2022-08-24T22:01:21.904Z,18.40
2022-08-24T22:03:48.724Z,18.40
2022-08-24T22:06:15.595Z,18.40
2022-08-24T22:08:43.273Z,18.30
2022-08-24T22:11:15.143Z,18.30
2022-08-24T22:13:42.332Z,18.30
2022-08-24T22:16:10.052Z,18.30
2022-08-24T22:18:36.835Z,18.30
2022-08-24T22:21:09.029Z,18.20
2022-08-24T22:23:35.947Z,18.20
2022-08-24T22:26:02.862Z,18.20
2022-08-24T22:28:30.209Z,18.20
2022-08-24T22:30:56.947Z,18.10
2022-08-24T22:33:23.867Z,18.10
2022-08-24T22:35:51.780Z,18.00
2022-08-24T22:38:19.046Z,18.00
2022-08-24T22:40:46.001Z,18.00
2022-08-24T22:43:13.155Z,17.90
2022-08-24T22:45:39.849Z,17.90
2022-08-24T22:48:06.542Z,17.90
2022-08-24T22:50:33.212Z,17.90
2022-08-24T22:52:59.973Z,17.90
2022-08-24T22:55:27.010Z,17.80
2022-08-24T22:57:53.878Z,17.80
2022-08-24T23:00:20.654Z,17.80
2022-08-24T23:02:47.468Z,17.70
2022-08-24T23:05:14.227Z,17.70
2022-08-24T23:07:40.990Z,17.70
2022-08-24T23:10:08.038Z,17.70
2022-08-24T23:12:34.686Z,17.70
2022-08-24T23:15:01.435Z,17.60
2022-08-24T23:17:28.174Z,17.60
2022-08-24T23:20:01.284Z,17.60
2022-08-24T23:22:29.904Z,17.60
2022-08-24T23:24:56.660Z,17.50
2022-08-24T23:27:23.441Z,17.50
2022-08-24T23:29:50.172Z,17.40
2022-08-24T23:32:18.286Z,17.40
2022-08-24T23:34:48.342Z,17.30
2022-08-24T23:37:15.903Z,17.30
2022-08-24T23:39:43.033Z,17.30
2022-08-24T23:42:09.729Z,17.40
2022-08-24T23:44:36.525Z,17.30
2022-08-24T23:47:04.048Z,17.20
2022-08-24T23:49:30.981Z,17.20
2022-08-24T23:51:58.224Z,17.20
2022-08-24T23:54:25.348Z,17.10
2022-08-24T23:56:52.843Z,17.10
2022-08-24T23:59:21.486Z,17.00
